WEATHER DATA

YESTERDAY
Time Temp. Dewp. Hum. Wind dir Wind speed Wind gust Bar. 1h Prec. 24h Prec.
00:06 4.9 2.9 87 275 1.7 3.9 1013.5 0.0000 0.0000
00:19 4.7 2.7 87 296 2.5 6.4 1014.2 0.4113 0.4000
00:29 4.6 2.6 87 284 1.4 3.1 1013.8 0.6856 0.7000
00:39 4.5 2.7 88 276 1.4 3.1 1013.9 0.6856 0.7000
00:49 4.3 2.5 88 279 1.1 3.3 1014.1 0.6856 0.7000
01:00 4.2 2.4 88 259 1.1 3.9 1014.2 0.6856 0.7000
01:10 4.2 2.4 88 278 1.1 3.1 1014.3 0.6856 0.7000
01:19 4.3 2.7 89 285 1.7 4.2 1014.4 0.0000 0.7000
01:40 4.3 2.7 89 277 1.4 3.6 1014.5 0.0000 0.7000
01:50 4.3 2.7 89 270 1.1 2.8 1014.6 0.0000 0.7000
02:05 4.3 2.7 89 279 1.4 3.3 1014.8 0.0000 0.7000
02:15 4.4 2.7 89 279 2.5 5 1015.1 0.0000 0.7000
02:25 4.3 2.7 89 276 1.4 3.6 1015 0.0000 0.7000
02:35 4.2 2.6 89 284 1.4 3.6 1015.1 0.0000 0.7000
02:46 4.1 2.5 89 270 1.1 3.3 1015.3 0.0000 0.7000
03:01 4 2.4 89 270 1.4 3.3 1015.5 0.0000 0.7000
03:06 3.9 2.3 89 270 1.1 3.6 1015.6 0.0000 0.7000
03:21 3.9 2.3 89 279 2.5 5 1015.9 0.1371 0.8000
03:31 4 2.4 89 278 1.9 3.9 1015.8 0.1371 0.8000
03:41 4.1 2.5 89 279 1.1 2.8 1015.8 0.1371 0.8000
04:02 3.9 2.3 89 259 1.1 2.5 1015.9 0.1371 0.8000
04:21 3.7 2.1 89 248 0.8 3.1 1016.2 0.0000 0.8000
04:31 3.6 2 89 246 0.8 2.5 1016.3 0.0000 0.8000
04:42 3.5 1.9 89 243 0.8 2.5 1016.2 0.0000 0.8000
04:49 3.4 1.9 90 305 1.9 5.6 1016.8 0.1371 1.0000
04:59 3.5 2 90 280 2.5 5 1016.5 0.4113 1.2000
05:09 3.5 2 90 278 1.7 3.3 1016.7 0.4113 1.2000
05:19 3.5 2 90 280 1.9 4.4 1016.7 0.4113 1.2000
05:29 3.5 2 90 270 1.4 2.8 1016.7 0.4113 1.2000
05:39 3.4 1.9 90 270 1.1 2.5 1016.9 0.4113 1.2000
05:49 3.2 1.7 90 242 1.1 1.9 1016.9 0.0000 1.2000
05:59 3.1 1.6 90 270 1.1 1.9 1017.3 0.0000 1.2000
06:10 3.1 1.8 91 280 1.4 4.7 1017.5 0.0000 1.2000
06:20 3.2 1.9 91 282 1.7 4.7 1017.4 0.1371 1.4000
06:29 3.4 2.1 91 282 1.7 4.2 1017.3 0.1371 1.4000
06:40 3.4 2.1 91 270 1.4 2.8 1017.4 0.1371 1.4000
06:50 3.4 2.1 91 261 1.1 3.1 1017.5 0.1371 1.4000
07:00 3.2 1.9 91 270 1.1 2.5 1017.6 0.1371 1.4000
07:10 3 1.5 90 241 1.1 1.9 1017.7 0.1371 1.4000
07:16 2.9 1.6 91 245 1.1 3.1 1017.6 0.0000 1.4000
07:25 2.8 1.5 91 242 1.1 1.7 1017.7 0.0000 1.4000
07:35 2.7 1.4 91 326 0.8 1.7 1018.2 0.0000 1.4000
07:45 2.7 1.4 91 270 1.1 2.5 1018.2 0.0000 1.4000
07:56 2.9 1.7 92 296 2.8 5 1018.2 0.0000 1.4000
08:06 3.1 1.9 92 270 1.4 2.8 1018.2 0.0000 1.4000
08:11 3.1 1.8 91 270 1.1 2.5 1018.3 0.0000 1.4000
08:31 2.9 1.6 91 256 1.1 2.5 1018.5 0.0000 1.4000
08:41 2.7 1.4 91 247 1.1 1.9 1018.4 0.0000 1.4000
08:51 2.7 1.4 91 242 1.4 2.5 1018.5 0.0000 1.4000
09:01 2.8 1.6 92 252 1.7 3.3 1018.7 0.0000 1.4000
09:12 3.1 1.9 92 255 1.4 3.9 1018.7 0.0000 1.4000
09:21 3.2 2 92 252 1.7 3.9 1018.7 0.0000 1.4000
09:31 3.2 2 92 252 1.1 2.5 1018.8 0.0000 1.4000
09:52 3.3 2.1 92 261 1.4 1.9 1018.9 0.0000 1.4000
10:02 3.5 2.3 92 255 0.8 2.5 1019 0.0000 1.4000
10:12 3.7 2.5 92 256 1.1 3.1 1019.3 0.0000 1.4000
10:22 3.9 2.7 92 270 1.9 4.2 1019.4 0.0000 1.4000
10:32 4.2 3 92 278 1.7 4.7 1019.4 0.0000 1.4000
10:42 4.5 3.3 92 282 1.9 4.7 1019.4 0.0000 1.4000
10:53 4.6 3.4 92 276 1.7 3.9 1019.3 0.0000 1.4000
11:03 4.7 3.5 92 289 1.9 4.7 1019.4 0.0000 1.4000
11:12 4.8 3.5 91 275 1.7 4.2 1019.4 0.0000 1.4000
11:22 4.8 3.5 91 281 1.7 3.6 1019.4 1.4000
12:35 5.8 4.1 89 278 1.7 4.2 1019.4 0.0000 1.4000
12:45 5.9 4.2 89 280 1.9 3.9 1019.3 0.0000 1.4000
12:56 5.7 3.9 88 281 1.9 3.9 1019.3 0.0000 1.4000
13:06 5.6 3.8 88 282 2.5 4.7 1019.3 0.0000 1.4000
13:15 5.6 3.8 88 285 1.9 4.4 1019.2 0.0000 1.4000
13:25 5.7 3.9 88 285 1.7 4.7 1019.3 0.0000 1.4000
13:36 5.8 4 88 289 1.9 6.4 1019.5 0.0000 1.4000
13:46 6 4 87 298 2.8 6.4 1019.3 0.0000 1.4000
13:56 6 4 87 302 2.5 5.8 1019.6 0.0000 1.4000
14:01 5.9 3.7 86 303 2.8 6.9 1019.7 0.0000 1.4000
14:16 5.5 3.3 86 286 1.7 4.7 1019.7 0.0000 1.4000
14:26 5.3 3.2 86 292 1.4 4.4 1019.7 0.0000 1.4000
14:36 5.4 3.2 86 283 1.9 3.9 1019.6 0.0000 1.4000
14:47 5.4 3.2 86 287 1.4 4.7 1019.7 0.0000 1.4000
14:57 5.4 3.2 86 279 1.9 4.2 1019.9 0.0000 1.4000
15:09 5.4 3.2 86 293 2.5 8.1 1020 0.0000 1.4000
15:19 5.3 3.2 86 289 2.5 5.3 1019.9 0.0000 1.4000
16:15 4.9 2.8 86 285 1.7 3.9 1020.4 0.0000 1.4000
16:25 4.9 2.8 86 292 1.7 3.3 1020.4 0.0000 1.4000
16:35 4.8 2.5 85 280 1.7 3.9 1020.3 0.0000 1.4000
16:45 4.7 2.4 85 282 1.4 4.2 1020.3 0.0000 1.4000
16:56 4.6 2.3 85 285 1.7 4.2 1020.4 0.0000 1.4000
17:05 4.6 2.3 85 278 1.7 3.3 1020.5 0.0000 1.4000
17:15 4.5 2.2 85 270 1.7 4.2 1020.5 0.0000 1.4000
17:26 4.5 2.2 85 270 1.4 3.6 1020.5 0.0000 1.4000
17:36 4.5 2.4 86 285 1.4 3.1 1020.7 0.0000 1.4000
17:46 4.5 2.4 86 295 1.7 3.1 1020.8 0.1371 1.5000
17:56 4.5 2.4 86 276 1.4 3.1 1020.8 0.2742 1.6000
18:12 4.4 2.4 87 287 1.4 3.1 1020.9 0.4113 1.8000
18:21 4.4 2.4 87 299 1.7 3.9 1021.1 0.6856 2.1000
18:31 4.4 2.4 87 304 3.1 5 1021.3 1.5084 2.9000
18:42 4.3 2.5 88 304 3.1 5 1021.1 1.6455 3.0000
18:52 4.2 2.4 88 286 1.9 4.2 1021.1 1.3712 3.0000
19:02 4.1 2.3 88 300 2.8 5.3 1021.1 1.3712 3.0000
19:11 4 2.2 88 293 2.5 4.7 1021 1.2341 3.0000
19:22 3.9 2.1 88 292 1.9 4.7 1021 0.9599 3.0000
19:32 3.7 2.1 89 295 2.5 4.7 1020.9 0.1371 3.0000
19:42 3.7 2.1 89 287 1.9 4.4 1021 0.0000 3.0000
19:52 3.6 2 89 283 1.7 4.4 1021 0.0000 3.0000
20:03 3.6 2 89 288 1.9 3.6 1021 0.0000 3.0000
20:13 3.6 2.1 90 292 2.5 5 1021.2 0.0000 3.0000
20:22 3.6 2.1 90 292 2.5 4.7 1021 0.0000 3.0000
20:33 3.6 2.1 90 287 1.9 3.9 1021 0.0000 3.0000
20:43 3.6 2.1 90 290 1.7 3.6 1021.2 0.0000 3.0000
20:53 3.6 2.1 90 295 1.9 3.9 1021.3 0.0000 3.0000
21:03 3.6 2.1 90 286 1.7 3.6 1021.2 0.0000 3.0000
21:09 3.6 2.1 90 293 1.7 3.9 1021.1 0.0000 3.0000
21:23 3.5 2 90 285 1.4 3.3 1021.2 0.0000 3.0000
21:33 3.5 2 90 283 1.1 2.8 1021.1 0.0000 3.0000
21:54 3.6 2.3 91 287 1.7 3.9 1021.4 0.0000 3.0000
22:04 3.6 2.3 91 290 1.4 3.3 1021.5 0.0000 3.0000
22:14 3.7 2.4 91 288 1.7 3.6 1021.2 0.0000 3.0000
22:24 3.7 2.4 91 280 1.4 3.1 1021.3 0.0000 3.0000
22:34 3.7 2.4 91 283 1.1 2.8 1021.4 0.0000 3.0000
22:44 3.6 2.3 91 280 1.1 2.8 1021.5 0.0000 3.0000
22:54 3.6 2.3 91 282 0.8 1.7 1021.6 0.0000 3.0000
23:05 3.5 2.2 91 285 0.8 2.5 1021.5 0.0000 3.0000
23:15 3.4 2.1 91 282 1.1 1.9 1021.5 0.0000 3.0000
23:25 3.3 2 91 282 1.1 1.9 1021.7 0.0000 3.0000
23:35 3.2 1.9 91 270 0.8 1.9 1021.6 0.0000 3.0000
23:45 3.2 1.9 91 270 1.1 4.2 1021.7 0.0000 3.0000
23:55 3.2 1.9 91 282 1.1 2.8 1021.8 0.1371 3.2000

DAY STATISTIC

2018-12-10
TEMPERATURE
AVERAGE
4.0
HIGH
6.0
13:46
LOW
2.7
07:35
PRESSURE
AVERAGE
1018.8
HIGH
1021.8
23:55
LOW
1013.5
00:06
DEWPOINT
AVERAGE
2.4
HIGH
4.2
12:45
LOW
1.4
07:35
HUMIDITY
AVERAGE
89
HIGH
92
07:56
LOW
85
16:35
WIND SPEED
AVERAGE
1.6
HIGH
3.1
18:31
WIND GUST
AVERAGE
3.7
HIGH
8.1
15:09
WIND DIRECTION
PREVAILING
W
80%
N
0.0
NE
0.0
E
0.0
SE
0.0
S
0.0
SW
6.4
W
80.0
NW
13.6
PRECIPITATION
RAIN HOUR
1.6
RAIN DAY
3.2
TEMPERATURE (°C)
LOW
2.7
HIGH
6.0
AVERAGE
4.0
PRESSURE (hpa)
LOW
1013.5
HIGH
1021.8
AVERAGE
1018.8
DEVICE